sensor_id;sensor_type;location;lat;lon;timestamp;P1;durP1;ratioP1;P2;durP2;ratioP2
69771;SDS011;57046;45.988;18.664;2022-08-01T00:02:10;3.17;;;2.60;;
69771;SDS011;57046;45.988;18.664;2022-08-01T00:04:36;3.97;;;2.83;;
69771;SDS011;57046;45.988;18.664;2022-08-01T00:07:01;4.93;;;2.90;;
69771;SDS011;57046;45.988;18.664;2022-08-01T00:09:26;4.63;;;2.80;;
69771;SDS011;57046;45.988;18.664;2022-08-01T00:11:52;2.43;;;2.13;;
69771;SDS011;57046;45.988;18.664;2022-08-01T00:14:17;3.83;;;2.30;;
69771;SDS011;57046;45.988;18.664;2022-08-01T00:16:43;2.42;;;2.22;;
69771;SDS011;57046;45.988;18.664;2022-08-01T00:19:08;4.57;;;2.93;;
69771;SDS011;57046;45.988;18.664;2022-08-01T00:21:33;3.03;;;2.50;;
69771;SDS011;57046;45.988;18.664;2022-08-01T00:23:59;3.30;;;2.97;;
69771;SDS011;57046;45.988;18.664;2022-08-01T00:26:24;2.80;;;2.47;;
69771;SDS011;57046;45.988;18.664;2022-08-01T00:28:49;3.07;;;2.73;;
69771;SDS011;57046;45.988;18.664;2022-08-01T00:31:15;3.47;;;2.63;;
69771;SDS011;57046;45.988;18.664;2022-08-01T00:33:40;3.33;;;2.63;;
69771;SDS011;57046;45.988;18.664;2022-08-01T00:36:05;4.40;;;2.85;;
69771;SDS011;57046;45.988;18.664;2022-08-01T00:38:31;3.70;;;2.30;;
69771;SDS011;57046;45.988;18.664;2022-08-01T00:40:56;3.57;;;2.37;;
69771;SDS011;57046;45.988;18.664;2022-08-01T00:43:22;4.43;;;2.63;;
69771;SDS011;57046;45.988;18.664;2022-08-01T00:45:47;3.40;;;2.53;;
69771;SDS011;57046;45.988;18.664;2022-08-01T00:48:13;6.97;;;3.90;;
69771;SDS011;57046;45.988;18.664;2022-08-01T00:50:38;3.80;;;2.67;;
69771;SDS011;57046;45.988;18.664;2022-08-01T00:53:04;3.95;;;2.78;;
69771;SDS011;57046;45.988;18.664;2022-08-01T00:55:30;4.53;;;2.67;;
69771;SDS011;57046;45.988;18.664;2022-08-01T00:57:56;2.90;;;2.63;;
69771;SDS011;57046;45.988;18.664;2022-08-01T01:00:22;3.10;;;2.50;;
69771;SDS011;57046;45.988;18.664;2022-08-01T01:02:49;3.20;;;2.90;;
69771;SDS011;57046;45.988;18.664;2022-08-01T01:05:14;3.93;;;2.93;;
69771;SDS011;57046;45.988;18.664;2022-08-01T01:13:37;4.45;;;2.80;;
69771;SDS011;57046;45.988;18.664;2022-08-01T01:16:14;3.10;;;2.60;;
69771;SDS011;57046;45.988;18.664;2022-08-01T01:18:46;4.10;;;3.17;;
69771;SDS011;57046;45.988;18.664;2022-08-01T01:29:38;3.13;;;2.83;;
69771;SDS011;57046;45.988;18.664;2022-08-01T01:34:44;3.63;;;3.00;;
69771;SDS011;57046;45.988;18.664;2022-08-01T01:37:14;4.30;;;2.88;;
69771;SDS011;57046;45.988;18.664;2022-08-01T01:39:42;4.15;;;3.45;;
69771;SDS011;57046;45.988;18.664;2022-08-01T01:42:09;3.77;;;2.67;;
69771;SDS011;57046;45.988;18.664;2022-08-01T01:44:35;4.28;;;3.00;;
69771;SDS011;57046;45.988;18.664;2022-08-01T01:47:02;3.72;;;2.85;;
69771;SDS011;57046;45.988;18.664;2022-08-01T01:49:29;6.25;;;3.03;;
69771;SDS011;57046;45.988;18.664;2022-08-01T01:51:57;5.10;;;3.13;;
69771;SDS011;57046;45.988;18.664;2022-08-01T01:54:28;4.90;;;3.17;;
69771;SDS011;57046;45.988;18.664;2022-08-01T01:56:58;4.05;;;3.28;;
69771;SDS011;57046;45.988;18.664;2022-08-01T01:59:26;3.65;;;2.67;;
69771;SDS011;57046;45.988;18.664;2022-08-01T02:01:55;3.10;;;2.80;;
69771;SDS011;57046;45.988;18.664;2022-08-01T02:04:23;4.82;;;3.20;;
69771;SDS011;57046;45.988;18.664;2022-08-01T02:06:51;3.67;;;3.03;;
69771;SDS011;57046;45.988;18.664;2022-08-01T02:09:18;6.90;;;3.35;;
69771;SDS011;57046;45.988;18.664;2022-08-01T02:11:48;4.93;;;3.53;;
69771;SDS011;57046;45.988;18.664;2022-08-01T02:14:16;6.10;;;3.08;;
69771;SDS011;57046;45.988;18.664;2022-08-01T02:16:49;6.22;;;3.30;;
69771;SDS011;57046;45.988;18.664;2022-08-01T02:19:18;3.63;;;3.30;;
69771;SDS011;57046;45.988;18.664;2022-08-01T02:24:36;5.50;;;3.72;;
69771;SDS011;57046;45.988;18.664;2022-08-01T02:27:07;4.18;;;3.28;;
69771;SDS011;57046;45.988;18.664;2022-08-01T02:29:37;5.13;;;3.30;;
69771;SDS011;57046;45.988;18.664;2022-08-01T02:32:07;3.70;;;3.37;;
69771;SDS011;57046;45.988;18.664;2022-08-01T02:34:36;4.00;;;3.28;;
69771;SDS011;57046;45.988;18.664;2022-08-01T02:37:02;6.93;;;3.30;;
69771;SDS011;57046;45.988;18.664;2022-08-01T02:39:29;3.92;;;3.45;;
69771;SDS011;57046;45.988;18.664;2022-08-01T02:41:57;3.97;;;3.20;;
69771;SDS011;57046;45.988;18.664;2022-08-01T02:44:28;3.53;;;3.22;;
69771;SDS011;57046;45.988;18.664;2022-08-01T02:46:58;5.05;;;3.53;;
69771;SDS011;57046;45.988;18.664;2022-08-01T02:49:25;4.20;;;3.30;;
69771;SDS011;57046;45.988;18.664;2022-08-01T02:51:55;3.10;;;2.80;;
69771;SDS011;57046;45.988;18.664;2022-08-01T02:54:23;4.07;;;3.45;;
69771;SDS011;57046;45.988;18.664;2022-08-01T02:56:51;3.90;;;3.50;;
69771;SDS011;57046;45.988;18.664;2022-08-01T02:59:21;4.05;;;3.08;;
69771;SDS011;57046;45.988;18.664;2022-08-01T03:01:48;4.93;;;3.77;;
69771;SDS011;57046;45.988;18.664;2022-08-01T03:04:16;8.20;;;3.88;;
69771;SDS011;57046;45.988;18.664;2022-08-01T03:06:43;4.88;;;4.10;;
69771;SDS011;57046;45.988;18.664;2022-08-01T03:09:10;5.10;;;4.25;;
69771;SDS011;57046;45.988;18.664;2022-08-01T03:11:37;4.93;;;4.00;;
69771;SDS011;57046;45.988;18.664;2022-08-01T03:14:07;4.20;;;3.80;;
69771;SDS011;57046;45.988;18.664;2022-08-01T03:16:35;4.60;;;4.13;;
69771;SDS011;57046;45.988;18.664;2022-08-01T03:19:03;5.68;;;4.50;;
69771;SDS011;57046;45.988;18.664;2022-08-01T03:21:31;4.63;;;4.22;;
69771;SDS011;57046;45.988;18.664;2022-08-01T03:23:59;5.90;;;4.00;;
69771;SDS011;57046;45.988;18.664;2022-08-01T03:26:26;6.23;;;4.73;;
69771;SDS011;57046;45.988;18.664;2022-08-01T03:28:55;5.88;;;4.57;;
69771;SDS011;57046;45.988;18.664;2022-08-01T03:31:23;7.53;;;4.13;;
69771;SDS011;57046;45.988;18.664;2022-08-01T03:33:50;4.72;;;4.22;;
69771;SDS011;57046;45.988;18.664;2022-08-01T03:36:16;4.57;;;4.10;;
69771;SDS011;57046;45.988;18.664;2022-08-01T03:38:44;5.07;;;4.20;;
69771;SDS011;57046;45.988;18.664;2022-08-01T03:41:12;5.03;;;3.75;;
69771;SDS011;57046;45.988;18.664;2022-08-01T03:43:45;5.93;;;4.53;;
69771;SDS011;57046;45.988;18.664;2022-08-01T03:46:19;5.93;;;4.33;;
69771;SDS011;57046;45.988;18.664;2022-08-01T03:48:47;5.05;;;3.63;;
69771;SDS011;57046;45.988;18.664;2022-08-01T03:51:15;4.18;;;3.78;;
69771;SDS011;57046;45.988;18.664;2022-08-01T03:53:43;6.15;;;3.58;;
69771;SDS011;57046;45.988;18.664;2022-08-01T03:56:10;3.67;;;3.28;;
69771;SDS011;57046;45.988;18.664;2022-08-01T03:58:39;3.50;;;3.20;;
69771;SDS011;57046;45.988;18.664;2022-08-01T04:01:07;4.85;;;3.83;;
69771;SDS011;57046;45.988;18.664;2022-08-01T04:03:33;5.43;;;3.70;;
69771;SDS011;57046;45.988;18.664;2022-08-01T04:05:58;4.97;;;3.80;;
69771;SDS011;57046;45.988;18.664;2022-08-01T04:08:33;4.85;;;4.22;;
69771;SDS011;57046;45.988;18.664;2022-08-01T04:10:59;5.77;;;5.00;;
69771;SDS011;57046;45.988;18.664;2022-08-01T04:13:25;6.60;;;4.90;;
69771;SDS011;57046;45.988;18.664;2022-08-01T04:15:50;4.57;;;3.97;;
69771;SDS011;57046;45.988;18.664;2022-08-01T04:18:16;5.70;;;5.10;;
69771;SDS011;57046;45.988;18.664;2022-08-01T04:20:41;5.10;;;4.60;;
69771;SDS011;57046;45.988;18.664;2022-08-01T04:23:06;5.10;;;4.47;;
69771;SDS011;57046;45.988;18.664;2022-08-01T04:25:33;5.32;;;4.43;;
69771;SDS011;57046;45.988;18.664;2022-08-01T04:28:00;5.63;;;4.35;;
69771;SDS011;57046;45.988;18.664;2022-08-01T04:30:28;5.82;;;4.38;;
69771;SDS011;57046;45.988;18.664;2022-08-01T04:32:58;5.78;;;4.95;;
69771;SDS011;57046;45.988;18.664;2022-08-01T04:35:26;5.93;;;5.00;;
69771;SDS011;57046;45.988;18.664;2022-08-01T04:37:53;6.55;;;5.03;;
69771;SDS011;57046;45.988;18.664;2022-08-01T04:40:20;6.60;;;4.38;;
69771;SDS011;57046;45.988;18.664;2022-08-01T04:42:46;5.10;;;4.60;;
69771;SDS011;57046;45.988;18.664;2022-08-01T04:45:11;5.90;;;4.90;;
69771;SDS011;57046;45.988;18.664;2022-08-01T04:47:37;5.37;;;4.87;;
69771;SDS011;57046;45.988;18.664;2022-08-01T04:50:05;6.82;;;4.72;;
69771;SDS011;57046;45.988;18.664;2022-08-01T04:52:34;6.18;;;5.50;;
69771;SDS011;57046;45.988;18.664;2022-08-01T04:55:00;6.53;;;4.57;;
69771;SDS011;57046;45.988;18.664;2022-08-01T04:57:25;5.20;;;4.70;;
69771;SDS011;57046;45.988;18.664;2022-08-01T04:59:51;7.40;;;4.93;;
69771;SDS011;57046;45.988;18.664;2022-08-01T05:02:17;5.20;;;4.70;;
69771;SDS011;57046;45.988;18.664;2022-08-01T05:04:44;5.78;;;5.20;;
69771;SDS011;57046;45.988;18.664;2022-08-01T05:07:10;7.40;;;4.80;;
69771;SDS011;57046;45.988;18.664;2022-08-01T05:09:37;11.85;;;5.68;;
69771;SDS011;57046;45.988;18.664;2022-08-01T05:12:04;8.40;;;4.97;;
69771;SDS011;57046;45.988;18.664;2022-08-01T05:14:30;23.53;;;5.70;;
69771;SDS011;57046;45.988;18.664;2022-08-01T05:16:55;42.80;;;6.18;;
69771;SDS011;57046;45.988;18.664;2022-08-01T05:19:21;42.10;;;6.37;;
69771;SDS011;57046;45.988;18.664;2022-08-01T05:21:46;14.50;;;5.07;;
69771;SDS011;57046;45.988;18.664;2022-08-01T05:24:12;17.35;;;5.47;;
69771;SDS011;57046;45.988;18.664;2022-08-01T05:26:37;5.10;;;4.10;;
69771;SDS011;57046;45.988;18.664;2022-08-01T05:29:03;4.93;;;4.43;;
69771;SDS011;57046;45.988;18.664;2022-08-01T05:31:29;6.53;;;5.20;;
69771;SDS011;57046;45.988;18.664;2022-08-01T05:33:54;5.50;;;4.30;;
69771;SDS011;57046;45.988;18.664;2022-08-01T05:36:20;7.47;;;4.47;;
69771;SDS011;57046;45.988;18.664;2022-08-01T05:38:45;4.37;;;3.87;;
69771;SDS011;57046;45.988;18.664;2022-08-01T05:41:11;4.75;;;4.18;;
69771;SDS011;57046;45.988;18.664;2022-08-01T05:43:36;5.50;;;4.70;;
69771;SDS011;57046;45.988;18.664;2022-08-01T05:46:02;6.63;;;4.63;;
69771;SDS011;57046;45.988;18.664;2022-08-01T05:48:27;6.63;;;4.33;;
69771;SDS011;57046;45.988;18.664;2022-08-01T05:50:53;6.82;;;4.47;;
69771;SDS011;57046;45.988;18.664;2022-08-01T05:53:18;5.83;;;4.30;;
69771;SDS011;57046;45.988;18.664;2022-08-01T05:55:44;6.28;;;5.00;;
69771;SDS011;57046;45.988;18.664;2022-08-01T05:58:09;5.13;;;4.50;;
69771;SDS011;57046;45.988;18.664;2022-08-01T06:00:34;8.40;;;4.10;;
69771;SDS011;57046;45.988;18.664;2022-08-01T06:03:00;5.47;;;4.70;;
69771;SDS011;57046;45.988;18.664;2022-08-01T06:05:25;5.63;;;4.60;;
69771;SDS011;57046;45.988;18.664;2022-08-01T06:07:50;5.60;;;4.23;;
69771;SDS011;57046;45.988;18.664;2022-08-01T06:10:16;5.80;;;4.57;;
69771;SDS011;57046;45.988;18.664;2022-08-01T06:12:41;5.10;;;3.87;;
69771;SDS011;57046;45.988;18.664;2022-08-01T06:15:06;5.00;;;4.53;;
69771;SDS011;57046;45.988;18.664;2022-08-01T06:17:33;5.57;;;4.55;;
69771;SDS011;57046;45.988;18.664;2022-08-01T06:19:58;4.67;;;4.27;;
69771;SDS011;57046;45.988;18.664;2022-08-01T06:22:24;6.17;;;4.37;;
69771;SDS011;57046;45.988;18.664;2022-08-01T06:24:49;4.20;;;3.80;;
69771;SDS011;57046;45.988;18.664;2022-08-01T06:27:14;4.30;;;3.90;;
69771;SDS011;57046;45.988;18.664;2022-08-01T06:29:40;4.70;;;4.30;;
69771;SDS011;57046;45.988;18.664;2022-08-01T06:32:05;7.43;;;4.40;;
69771;SDS011;57046;45.988;18.664;2022-08-01T06:34:31;4.88;;;4.00;;
69771;SDS011;57046;45.988;18.664;2022-08-01T06:36:56;4.97;;;3.80;;
69771;SDS011;57046;45.988;18.664;2022-08-01T06:39:21;5.53;;;3.73;;
69771;SDS011;57046;45.988;18.664;2022-08-01T06:41:47;4.20;;;3.90;;
69771;SDS011;57046;45.988;18.664;2022-08-01T06:44:12;4.47;;;3.57;;
69771;SDS011;57046;45.988;18.664;2022-08-01T06:46:38;4.00;;;3.60;;
69771;SDS011;57046;45.988;18.664;2022-08-01T06:49:03;4.70;;;3.47;;
69771;SDS011;57046;45.988;18.664;2022-08-01T06:51:29;4.10;;;3.72;;
69771;SDS011;57046;45.988;18.664;2022-08-01T06:53:55;4.25;;;3.85;;
69771;SDS011;57046;45.988;18.664;2022-08-01T06:56:20;3.87;;;3.40;;
69771;SDS011;57046;45.988;18.664;2022-08-01T06:58:46;6.93;;;4.13;;
69771;SDS011;57046;45.988;18.664;2022-08-01T07:01:11;6.67;;;4.13;;
69771;SDS011;57046;45.988;18.664;2022-08-01T07:03:37;4.97;;;3.47;;
69771;SDS011;57046;45.988;18.664;2022-08-01T07:06:02;3.83;;;3.53;;
69771;SDS011;57046;45.988;18.664;2022-08-01T07:08:28;4.30;;;3.90;;
69771;SDS011;57046;45.988;18.664;2022-08-01T07:10:54;4.00;;;3.70;;
69771;SDS011;57046;45.988;18.664;2022-08-01T07:13:19;5.03;;;3.70;;
69771;SDS011;57046;45.988;18.664;2022-08-01T07:15:44;5.77;;;3.40;;
69771;SDS011;57046;45.988;18.664;2022-08-01T07:18:10;4.07;;;3.53;;
69771;SDS011;57046;45.988;18.664;2022-08-01T07:20:36;4.63;;;3.07;;
69771;SDS011;57046;45.988;18.664;2022-08-01T07:23:02;3.78;;;3.40;;
69771;SDS011;57046;45.988;18.664;2022-08-01T07:25:28;3.92;;;3.40;;
69771;SDS011;57046;45.988;18.664;2022-08-01T07:27:53;3.70;;;3.40;;
69771;SDS011;57046;45.988;18.664;2022-08-01T07:30:18;3.60;;;3.30;;
69771;SDS011;57046;45.988;18.664;2022-08-01T07:32:44;3.67;;;3.37;;
69771;SDS011;57046;45.988;18.664;2022-08-01T07:35:09;6.30;;;3.30;;
69771;SDS011;57046;45.988;18.664;2022-08-01T07:37:35;7.40;;;3.65;;
69771;SDS011;57046;45.988;18.664;2022-08-01T07:40:00;6.50;;;3.77;;
69771;SDS011;57046;45.988;18.664;2022-08-01T07:42:26;6.18;;;3.47;;
69771;SDS011;57046;45.988;18.664;2022-08-01T07:44:54;6.07;;;3.22;;
69771;SDS011;57046;45.988;18.664;2022-08-01T07:47:26;5.67;;;3.47;;
69771;SDS011;57046;45.988;18.664;2022-08-01T07:49:52;4.15;;;3.08;;
69771;SDS011;57046;45.988;18.664;2022-08-01T07:52:24;6.85;;;3.42;;
69771;SDS011;57046;45.988;18.664;2022-08-01T07:54:50;3.70;;;3.00;;
69771;SDS011;57046;45.988;18.664;2022-08-01T07:57:15;3.23;;;2.93;;
69771;SDS011;57046;45.988;18.664;2022-08-01T07:59:41;3.73;;;3.00;;
69771;SDS011;57046;45.988;18.664;2022-08-01T08:02:07;3.72;;;3.17;;
69771;SDS011;57046;45.988;18.664;2022-08-01T08:04:32;5.30;;;3.30;;
69771;SDS011;57046;45.988;18.664;2022-08-01T08:06:58;3.40;;;3.10;;
69771;SDS011;57046;45.988;18.664;2022-08-01T08:09:23;5.03;;;3.60;;
69771;SDS011;57046;45.988;18.664;2022-08-01T08:11:49;4.50;;;2.80;;
69771;SDS011;57046;45.988;18.664;2022-08-01T08:14:15;4.90;;;2.70;;
69771;SDS011;57046;45.988;18.664;2022-08-01T08:16:41;14.13;;;4.25;;
69771;SDS011;57046;45.988;18.664;2022-08-01T08:19:07;2.50;;;2.38;;
69771;SDS011;57046;45.988;18.664;2022-08-01T08:21:33;3.37;;;2.77;;
69771;SDS011;57046;45.988;18.664;2022-08-01T08:23:59;2.80;;;2.60;;
69771;SDS011;57046;45.988;18.664;2022-08-01T08:26:24;3.10;;;2.80;;
69771;SDS011;57046;45.988;18.664;2022-08-01T08:28:50;3.10;;;2.17;;
69771;SDS011;57046;45.988;18.664;2022-08-01T08:31:15;4.05;;;2.75;;
69771;SDS011;57046;45.988;18.664;2022-08-01T08:33:41;2.63;;;2.43;;
69771;SDS011;57046;45.988;18.664;2022-08-01T08:36:06;2.57;;;2.37;;
69771;SDS011;57046;45.988;18.664;2022-08-01T08:38:33;2.50;;;2.30;;
69771;SDS011;57046;45.988;18.664;2022-08-01T08:40:59;2.42;;;2.20;;
69771;SDS011;57046;45.988;18.664;2022-08-01T08:43:25;4.55;;;2.60;;
69771;SDS011;57046;45.988;18.664;2022-08-01T08:45:50;2.60;;;2.40;;
69771;SDS011;57046;45.988;18.664;2022-08-01T08:48:16;2.33;;;2.13;;
69771;SDS011;57046;45.988;18.664;2022-08-01T08:50:43;2.70;;;2.50;;
69771;SDS011;57046;45.988;18.664;2022-08-01T08:53:10;2.63;;;2.42;;
69771;SDS011;57046;45.988;18.664;2022-08-01T08:55:39;2.85;;;2.55;;
69771;SDS011;57046;45.988;18.664;2022-08-01T08:58:06;2.53;;;2.30;;
69771;SDS011;57046;45.988;18.664;2022-08-01T09:00:32;3.10;;;2.20;;
69771;SDS011;57046;45.988;18.664;2022-08-01T09:02:57;3.83;;;2.60;;
69771;SDS011;57046;45.988;18.664;2022-08-01T09:05:23;4.57;;;2.57;;
69771;SDS011;57046;45.988;18.664;2022-08-01T09:07:48;2.80;;;2.53;;
69771;SDS011;57046;45.988;18.664;2022-08-01T09:10:13;3.33;;;2.20;;
69771;SDS011;57046;45.988;18.664;2022-08-01T09:12:39;3.23;;;2.60;;
69771;SDS011;57046;45.988;18.664;2022-08-01T09:15:04;4.77;;;4.07;;
69771;SDS011;57046;45.988;18.664;2022-08-01T09:17:38;2.58;;;2.38;;
69771;SDS011;57046;45.988;18.664;2022-08-01T09:20:05;2.70;;;2.25;;
69771;SDS011;57046;45.988;18.664;2022-08-01T09:22:32;2.60;;;2.40;;
69771;SDS011;57046;45.988;18.664;2022-08-01T09:27:34;3.75;;;2.60;;
69771;SDS011;57046;45.988;18.664;2022-08-01T09:35:25;3.05;;;2.15;;
69771;SDS011;57046;45.988;18.664;2022-08-01T09:38:10;3.00;;;2.67;;
69771;SDS011;57046;45.988;18.664;2022-08-01T09:43:19;3.78;;;2.25;;
69771;SDS011;57046;45.988;18.664;2022-08-01T09:45:46;2.73;;;2.23;;
69771;SDS011;57046;45.988;18.664;2022-08-01T09:48:12;2.57;;;2.37;;
69771;SDS011;57046;45.988;18.664;2022-08-01T09:50:41;2.70;;;2.50;;
69771;SDS011;57046;45.988;18.664;2022-08-01T09:53:08;3.87;;;2.80;;
69771;SDS011;57046;45.988;18.664;2022-08-01T09:55:35;2.57;;;2.27;;
69771;SDS011;57046;45.988;18.664;2022-08-01T09:58:01;2.85;;;2.30;;
69771;SDS011;57046;45.988;18.664;2022-08-01T10:00:27;2.53;;;2.33;;
69771;SDS011;57046;45.988;18.664;2022-08-01T10:02:52;4.97;;;2.00;;
69771;SDS011;57046;45.988;18.664;2022-08-01T10:05:18;2.67;;;2.47;;
69771;SDS011;57046;45.988;18.664;2022-08-01T10:07:56;2.73;;;2.20;;
69771;SDS011;57046;45.988;18.664;2022-08-01T10:10:23;2.70;;;2.50;;
69771;SDS011;57046;45.988;18.664;2022-08-01T10:12:48;3.15;;;2.17;;
69771;SDS011;57046;45.988;18.664;2022-08-01T10:15:16;2.50;;;2.30;;
69771;SDS011;57046;45.988;18.664;2022-08-01T10:17:50;4.03;;;2.30;;
69771;SDS011;57046;45.988;18.664;2022-08-01T10:20:20;2.55;;;2.25;;
69771;SDS011;57046;45.988;18.664;2022-08-01T10:22:47;2.72;;;2.30;;
69771;SDS011;57046;45.988;18.664;2022-08-01T10:25:14;3.33;;;2.78;;
69771;SDS011;57046;45.988;18.664;2022-08-01T10:27:42;3.35;;;2.60;;
69771;SDS011;57046;45.988;18.664;2022-08-01T10:30:08;2.45;;;2.25;;
69771;SDS011;57046;45.988;18.664;2022-08-01T10:32:35;2.83;;;2.58;;
69771;SDS011;57046;45.988;18.664;2022-08-01T10:35:01;7.57;;;2.40;;
69771;SDS011;57046;45.988;18.664;2022-08-01T10:37:28;4.57;;;2.40;;
69771;SDS011;57046;45.988;18.664;2022-08-01T10:39:54;3.55;;;2.30;;
69771;SDS011;57046;45.988;18.664;2022-08-01T10:42:19;5.35;;;2.63;;
69771;SDS011;57046;45.988;18.664;2022-08-01T10:44:45;3.80;;;2.17;;
69771;SDS011;57046;45.988;18.664;2022-08-01T10:47:12;5.05;;;2.20;;
69771;SDS011;57046;45.988;18.664;2022-08-01T10:52:13;2.55;;;2.10;;
69771;SDS011;57046;45.988;18.664;2022-08-01T10:54:40;4.20;;;2.30;;
69771;SDS011;57046;45.988;18.664;2022-08-01T10:57:05;2.00;;;1.70;;
69771;SDS011;57046;45.988;18.664;2022-08-01T10:59:30;3.37;;;2.10;;
69771;SDS011;57046;45.988;18.664;2022-08-01T11:02:00;1.90;;;1.80;;
69771;SDS011;57046;45.988;18.664;2022-08-01T11:05:09;1.92;;;1.73;;
69771;SDS011;57046;45.988;18.664;2022-08-01T11:08:03;1.60;;;1.50;;
69771;SDS011;57046;45.988;18.664;2022-08-01T11:10:39;2.50;;;2.30;;
69771;SDS011;57046;45.988;18.664;2022-08-01T11:13:06;2.15;;;1.95;;
69771;SDS011;57046;45.988;18.664;2022-08-01T11:15:32;3.40;;;2.47;;
69771;SDS011;57046;45.988;18.664;2022-08-01T11:17:59;2.47;;;2.25;;
69771;SDS011;57046;45.988;18.664;2022-08-01T11:20:29;2.55;;;2.35;;
69771;SDS011;57046;45.988;18.664;2022-08-01T11:25:25;2.50;;;2.30;;
69771;SDS011;57046;45.988;18.664;2022-08-01T11:30:40;2.47;;;2.27;;
69771;SDS011;57046;45.988;18.664;2022-08-01T11:33:06;3.22;;;2.88;;
69771;SDS011;57046;45.988;18.664;2022-08-01T11:35:32;2.05;;;1.80;;
69771;SDS011;57046;45.988;18.664;2022-08-01T11:38:21;3.17;;;2.07;;
69771;SDS011;57046;45.988;18.664;2022-08-01T11:44:07;2.83;;;1.75;;
69771;SDS011;57046;45.988;18.664;2022-08-01T11:54:29;2.00;;;1.90;;
69771;SDS011;57046;45.988;18.664;2022-08-01T11:56:56;5.05;;;4.55;;
69771;SDS011;57046;45.988;18.664;2022-08-01T11:59:23;2.40;;;2.20;;
69771;SDS011;57046;45.988;18.664;2022-08-01T12:01:49;2.55;;;2.20;;
69771;SDS011;57046;45.988;18.664;2022-08-01T12:04:14;1.87;;;1.77;;
69771;SDS011;57046;45.988;18.664;2022-08-01T12:06:40;2.63;;;2.43;;
69771;SDS011;57046;45.988;18.664;2022-08-01T12:09:18;2.85;;;2.53;;
69771;SDS011;57046;45.988;18.664;2022-08-01T12:11:45;3.07;;;2.30;;
69771;SDS011;57046;45.988;18.664;2022-08-01T12:14:20;2.33;;;2.10;;
69771;SDS011;57046;45.988;18.664;2022-08-01T12:16:49;2.53;;;2.30;;
69771;SDS011;57046;45.988;18.664;2022-08-01T12:19:20;3.00;;;2.50;;
69771;SDS011;57046;45.988;18.664;2022-08-01T12:22:04;2.30;;;2.10;;
69771;SDS011;57046;45.988;18.664;2022-08-01T12:24:38;3.83;;;3.13;;
69771;SDS011;57046;45.988;18.664;2022-08-01T12:27:05;3.87;;;2.50;;
69771;SDS011;57046;45.988;18.664;2022-08-01T12:31:58;3.30;;;2.60;;
69771;SDS011;57046;45.988;18.664;2022-08-01T12:34:26;2.63;;;2.17;;
69771;SDS011;57046;45.988;18.664;2022-08-01T12:36:54;2.20;;;2.00;;
69771;SDS011;57046;45.988;18.664;2022-08-01T12:39:21;2.57;;;2.10;;
69771;SDS011;57046;45.988;18.664;2022-08-01T12:41:46;3.13;;;2.10;;
69771;SDS011;57046;45.988;18.664;2022-08-01T12:44:14;3.03;;;2.07;;
69771;SDS011;57046;45.988;18.664;2022-08-01T12:46:41;1.85;;;1.73;;
69771;SDS011;57046;45.988;18.664;2022-08-01T12:49:08;3.53;;;2.28;;
69771;SDS011;57046;45.988;18.664;2022-08-01T12:51:33;3.53;;;2.13;;
69771;SDS011;57046;45.988;18.664;2022-08-01T12:53:59;1.87;;;1.77;;
69771;SDS011;57046;45.988;18.664;2022-08-01T12:56:31;2.33;;;1.93;;
69771;SDS011;57046;45.988;18.664;2022-08-01T12:58:57;1.70;;;1.60;;
69771;SDS011;57046;45.988;18.664;2022-08-01T13:01:25;2.40;;;1.90;;
69771;SDS011;57046;45.988;18.664;2022-08-01T13:04:00;8.53;;;2.30;;
69771;SDS011;57046;45.988;18.664;2022-08-01T13:06:30;2.30;;;2.10;;
69771;SDS011;57046;45.988;18.664;2022-08-01T13:09:04;2.15;;;2.05;;
69771;SDS011;57046;45.988;18.664;2022-08-01T13:11:30;2.08;;;1.88;;
69771;SDS011;57046;45.988;18.664;2022-08-01T13:13:55;2.20;;;2.00;;
69771;SDS011;57046;45.988;18.664;2022-08-01T13:16:22;2.25;;;2.08;;
69771;SDS011;57046;45.988;18.664;2022-08-01T13:18:51;2.00;;;1.90;;
69771;SDS011;57046;45.988;18.664;2022-08-01T13:26:39;2.97;;;1.90;;
69771;SDS011;57046;45.988;18.664;2022-08-01T13:29:20;2.33;;;2.15;;
69771;SDS011;57046;45.988;18.664;2022-08-01T13:31:47;2.20;;;1.90;;
69771;SDS011;57046;45.988;18.664;2022-08-01T13:34:12;1.90;;;1.80;;
69771;SDS011;57046;45.988;18.664;2022-08-01T13:36:39;2.80;;;1.95;;
69771;SDS011;57046;45.988;18.664;2022-08-01T13:39:05;1.90;;;1.80;;
69771;SDS011;57046;45.988;18.664;2022-08-01T13:41:33;1.97;;;1.63;;
69771;SDS011;57046;45.988;18.664;2022-08-01T13:43:59;2.47;;;2.28;;
69771;SDS011;57046;45.988;18.664;2022-08-01T13:46:24;2.08;;;1.98;;
69771;SDS011;57046;45.988;18.664;2022-08-01T13:48:50;2.03;;;1.70;;
69771;SDS011;57046;45.988;18.664;2022-08-01T13:51:15;3.33;;;2.00;;
69771;SDS011;57046;45.988;18.664;2022-08-01T13:53:41;2.55;;;2.00;;
69771;SDS011;57046;45.988;18.664;2022-08-01T13:56:06;2.57;;;2.37;;
69771;SDS011;57046;45.988;18.664;2022-08-01T13:58:31;2.93;;;2.73;;
69771;SDS011;57046;45.988;18.664;2022-08-01T14:00:57;4.23;;;2.20;;
69771;SDS011;57046;45.988;18.664;2022-08-01T14:03:22;3.17;;;1.60;;
69771;SDS011;57046;45.988;18.664;2022-08-01T14:05:48;2.23;;;2.03;;
69771;SDS011;57046;45.988;18.664;2022-08-01T14:08:13;2.50;;;2.30;;
69771;SDS011;57046;45.988;18.664;2022-08-01T14:10:39;2.37;;;2.13;;
69771;SDS011;57046;45.988;18.664;2022-08-01T14:13:05;2.60;;;2.40;;
69771;SDS011;57046;45.988;18.664;2022-08-01T14:15:31;2.27;;;2.07;;
69771;SDS011;57046;45.988;18.664;2022-08-01T14:17:56;1.88;;;1.77;;
69771;SDS011;57046;45.988;18.664;2022-08-01T14:20:22;3.00;;;2.38;;
69771;SDS011;57046;45.988;18.664;2022-08-01T14:22:48;1.90;;;1.70;;
69771;SDS011;57046;45.988;18.664;2022-08-01T14:25:14;4.30;;;2.20;;
69771;SDS011;57046;45.988;18.664;2022-08-01T14:27:41;2.47;;;2.10;;
69771;SDS011;57046;45.988;18.664;2022-08-01T14:30:07;3.50;;;2.33;;
69771;SDS011;57046;45.988;18.664;2022-08-01T14:32:33;2.27;;;2.07;;
69771;SDS011;57046;45.988;18.664;2022-08-01T14:35:00;3.33;;;2.23;;
69771;SDS011;57046;45.988;18.664;2022-08-01T14:37:26;2.45;;;2.28;;
69771;SDS011;57046;45.988;18.664;2022-08-01T14:39:52;2.75;;;2.55;;
69771;SDS011;57046;45.988;18.664;2022-08-01T14:42:17;3.00;;;2.47;;
69771;SDS011;57046;45.988;18.664;2022-08-01T14:44:43;2.60;;;2.03;;
69771;SDS011;57046;45.988;18.664;2022-08-01T14:47:09;2.30;;;2.10;;
69771;SDS011;57046;45.988;18.664;2022-08-01T14:49:34;2.13;;;1.93;;
69771;SDS011;57046;45.988;18.664;2022-08-01T14:52:00;4.63;;;2.45;;
69771;SDS011;57046;45.988;18.664;2022-08-01T14:54:25;2.40;;;2.10;;
69771;SDS011;57046;45.988;18.664;2022-08-01T14:56:51;2.07;;;1.97;;
69771;SDS011;57046;45.988;18.664;2022-08-01T14:59:16;2.72;;;2.30;;
69771;SDS011;57046;45.988;18.664;2022-08-01T15:01:42;1.90;;;1.73;;
69771;SDS011;57046;45.988;18.664;2022-08-01T15:04:07;2.97;;;2.37;;
69771;SDS011;57046;45.988;18.664;2022-08-01T15:06:33;6.27;;;2.30;;
69771;SDS011;57046;45.988;18.664;2022-08-01T15:08:58;2.08;;;1.92;;
69771;SDS011;57046;45.988;18.664;2022-08-01T15:11:24;2.10;;;2.00;;
69771;SDS011;57046;45.988;18.664;2022-08-01T15:13:49;4.33;;;1.80;;
69771;SDS011;57046;45.988;18.664;2022-08-01T15:16:15;2.33;;;1.83;;
69771;SDS011;57046;45.988;18.664;2022-08-01T15:18:40;2.93;;;1.97;;
69771;SDS011;57046;45.988;18.664;2022-08-01T15:21:06;3.53;;;2.00;;
69771;SDS011;57046;45.988;18.664;2022-08-01T15:23:31;2.40;;;1.80;;
69771;SDS011;57046;45.988;18.664;2022-08-01T15:25:57;2.63;;;2.40;;
69771;SDS011;57046;45.988;18.664;2022-08-01T15:28:23;3.25;;;2.55;;
69771;SDS011;57046;45.988;18.664;2022-08-01T15:30:48;2.40;;;1.60;;